Time;durP1;ratioP1;P1;durP2;ratioP2;P2;SDS_P1;SDS_P2;PMS_P1;PMS_P2;Temp;Humidity;BMP_temperature;BMP_pressure;BME280_temperature;BME280_humidity;BME280_pressure;Samples;Min_cycle;Max_cycle;Signal;HPM_P1;HPM_P2
2022/01/02 00:01:03;;;;;;;6.60;3.30;;;;;11.30;101203.00;;;;4987388;28;20250;-70
2022/01/02 00:03:52;;;;;;;7.57;3.27;;;;;11.30;101214.00;;;;4981409;28;20223;-69
2022/01/02 00:06:45;;;;;;;5.37;3.00;;;;;11.40;101215.00;;;;5000184;28;20319;-68
2022/01/02 00:09:33;;;;;;;8.53;3.93;;;;;11.40;101198.00;;;;5001732;28;20297;-70
2022/01/02 00:12:23;;;;;;;5.13;2.90;;;;;11.30;101207.00;;;;4991882;28;20348;-70
2022/01/02 00:15:13;;;;;;;7.67;3.10;;;;;11.30;101214.00;;;;4984603;28;20232;-68
2022/01/02 00:18:06;;;;;;;5.73;2.80;;;;;11.20;101204.00;;;;5002132;28;20294;-69
2022/01/02 00:20:55;;;;;;;6.93;3.27;;;;;11.20;101207.00;;;;5001371;28;20222;-70
2022/01/02 00:23:52;;;;;;;4.83;2.83;;;;;11.10;101204.00;;;;4997997;28;20238;-70
2022/01/02 00:26:42;;;;;;;4.17;2.90;;;;;11.10;101189.00;;;;4998279;28;20236;-71
2022/01/02 00:29:28;;;;;;;5.77;3.43;;;;;11.10;101177.00;;;;4999354;28;20246;-71
2022/01/02 00:32:21;;;;;;;4.93;3.10;;;;;11.10;101183.00;;;;4996824;28;20692;-70
2022/01/02 00:35:08;;;;;;;6.87;3.13;;;;;11.10;101190.00;;;;4999607;28;20230;-71
2022/01/02 00:37:55;;;;;;;5.83;3.20;;;;;11.20;101188.00;;;;4997877;28;20365;-70
2022/01/02 00:40:42;;;;;;;6.80;2.83;;;;;11.20;101177.00;;;;5011197;28;21173;-69
2022/01/02 00:43:39;;;;;;;6.20;3.10;;;;;11.30;101168.00;;;;5006789;28;20798;-70
2022/01/02 00:46:27;;;;;;;7.40;2.87;;;;;11.30;101171.00;;;;5000127;28;20229;-70
2022/01/02 00:49:18;;;;;;;4.37;2.77;;;;;11.30;101175.00;;;;5000537;28;20297;-70
2022/01/02 00:52:07;;;;;;;5.00;2.80;;;;;11.40;101172.00;;;;4988533;28;20309;-69
2022/01/02 00:54:55;;;;;;;4.37;2.50;;;;;11.30;101181.00;;;;4979014;28;20234;-68
2022/01/02 00:57:43;;;;;;;4.47;2.67;;;;;11.30;101168.00;;;;5009073;28;20312;-71
2022/01/02 01:00:31;;;;;;;5.23;2.60;;;;;11.30;101169.00;;;;4989939;28;20230;-71
2022/01/02 01:03:22;;;;;;;5.60;2.87;;;;;11.30;101176.00;;;;4998018;28;20236;-70
2022/01/02 01:06:11;;;;;;;9.83;2.93;;;;;11.40;101183.00;;;;5010582;28;20237;-70
2022/01/02 01:09:01;;;;;;;4.47;2.70;;;;;11.40;101195.00;;;;5004709;28;20250;-71
2022/01/02 01:11:48;;;;;;;4.90;2.70;;;;;11.40;101202.00;;;;5002804;28;20229;-71
2022/01/02 01:14:35;;;;;;;5.33;2.73;;;;;11.40;101197.00;;;;4998396;28;20234;-72
2022/01/02 01:17:21;;;;;;;5.50;2.97;;;;;11.50;101206.00;;;;4988663;28;20242;-70
2022/01/02 01:20:12;;;;;;;6.23;2.60;;;;;11.60;101207.00;;;;4988572;28;20261;-70
2022/01/02 01:23:00;;;;;;;6.10;2.70;;;;;11.80;101209.00;;;;4988005;28;20251;-70
2022/01/02 01:25:48;;;;;;;3.10;2.50;;;;;11.80;101196.00;;;;4986356;28;20234;-70
2022/01/02 01:28:34;;;;;;;4.17;2.77;;;;;11.70;101204.00;;;;4983465;28;20239;-70
2022/01/02 01:31:21;;;;;;;6.83;3.17;;;;;11.80;101213.00;;;;5008524;28;20246;-71
2022/01/02 01:34:08;;;;;;;7.50;2.57;;;;;11.90;101217.00;;;;5016294;28;20362;-69
2022/01/02 01:36:54;;;;;;;3.97;2.40;;;;;11.90;101213.00;;;;4977825;28;20251;-70
2022/01/02 01:39:41;;;;;;;3.63;2.50;;;;;12.10;101206.00;;;;5007477;28;20255;-70
2022/01/02 01:42:35;;;;;;;5.67;2.53;;;;;12.40;101198.00;;;;5008027;28;20282;-70
2022/01/02 01:45:31;;;;;;;3.83;2.33;;;;;12.40;101195.00;;;;5000906;28;20234;-70
2022/01/02 01:48:17;;;;;;;3.47;2.53;;;;;12.40;101211.00;;;;4995796;28;20245;-68
2022/01/02 01:51:03;;;;;;;4.30;2.83;;;;;12.30;101206.00;;;;4982641;28;20273;-68
2022/01/02 01:53:50;;;;;;;3.87;2.03;;;;;12.40;101198.00;;;;4984650;28;20976;-70
2022/01/02 01:56:39;;;;;;;5.83;2.63;;;;;12.30;101194.00;;;;4987940;28;20725;-69
2022/01/02 01:59:26;;;;;;;3.40;2.43;;;;;12.30;101192.00;;;;5006256;28;20239;-69
2022/01/02 02:02:14;;;;;;;5.67;2.87;;;;;12.30;101198.00;;;;4991487;28;20226;-68
2022/01/02 02:05:00;;;;;;;3.83;2.80;;;;;12.30;101194.00;;;;4987066;28;20602;-69
2022/01/02 02:07:47;;;;;;;5.00;3.00;;;;;12.30;101194.00;;;;4987390;28;20738;-69
2022/01/02 02:10:38;;;;;;;6.90;2.70;;;;;12.20;101196.00;;;;4987773;28;20310;-70
2022/01/02 02:13:26;;;;;;;4.23;2.90;;;;;12.20;101185.00;;;;5004225;28;20226;-71
2022/01/02 02:16:13;;;;;;;4.43;2.83;;;;;12.20;101190.00;;;;5013516;28;20296;-71
2022/01/02 02:18:59;;;;;;;7.77;2.70;;;;;12.20;101184.00;;;;5002670;28;20222;-70
2022/01/02 02:21:53;;;;;;;4.70;2.57;;;;;12.20;101191.00;;;;5064579;27;20625;-71
2022/01/02 02:24:40;;;;;;;6.50;3.60;;;;;12.10;101196.00;;;;5047407;28;20926;-68
2022/01/02 02:27:26;;;;;;;6.13;3.53;;;;;12.00;101203.00;;;;5021364;28;20229;-68
2022/01/02 02:30:13;;;;;;;7.93;3.23;;;;;12.10;101202.00;;;;5023330;28;20230;-70
2022/01/02 02:33:01;;;;;;;5.93;3.23;;;;;12.20;101202.00;;;;5018357;28;20229;-71
2022/01/02 02:35:49;;;;;;;6.93;3.30;;;;;12.00;101185.00;;;;5022541;28;20900;-70
2022/01/02 02:38:39;;;;;;;6.93;3.40;;;;;12.00;101174.00;;;;5027147;28;20224;-71
2022/01/02 02:41:31;;;;;;;5.20;3.10;;;;;12.10;101164.00;;;;5022641;28;20265;-69
2022/01/02 02:44:31;;;;;;;8.33;3.90;;;;;12.00;101149.00;;;;5021653;28;20241;-70
2022/01/02 02:50:22;;;;;;;6.57;3.40;;;;;12.00;101145.00;;;;5026311;28;20724;-71
2022/01/02 02:53:08;;;;;;;8.77;3.70;;;;;11.80;101137.00;;;;5022254;28;20808;-70
2022/01/02 02:55:58;;;;;;;6.80;3.77;;;;;11.70;101152.00;;;;5019165;28;20253;-71
2022/01/02 02:58:45;;;;;;;4.37;3.03;;;;;11.70;101151.00;;;;5018241;28;20372;-67
2022/01/02 03:01:31;;;;;;;5.27;3.70;;;;;11.70;101158.00;;;;5019320;28;20236;-69
2022/01/02 03:04:18;;;;;;;6.40;3.40;;;;;11.70;101143.00;;;;5022523;28;20224;-71
2022/01/02 03:07:05;;;;;;;5.83;3.20;;;;;11.70;101149.00;;;;5021681;28;20721;-70
2022/01/02 03:09:52;;;;;;;8.57;4.07;;;;;11.80;101133.00;;;;5019002;28;20230;-70
2022/01/02 03:12:40;;;;;;;9.93;3.63;;;;;11.80;101121.00;;;;5022357;28;20238;-69
2022/01/02 03:15:28;;;;;;;7.43;3.40;;;;;11.70;101112.00;;;;5022142;28;20328;-68
2022/01/02 03:18:14;;;;;;;7.97;3.97;;;;;11.70;101091.00;;;;5018120;28;20225;-71
2022/01/02 03:21:01;;;;;;;7.37;3.63;;;;;11.70;101076.00;;;;5035496;28;20360;-72
2022/01/02 03:23:47;;;;;;;10.83;4.40;;;;;11.60;101067.00;;;;5034220;28;20232;-72
2022/01/02 03:26:33;;;;;;;6.97;3.80;;;;;11.60;101083.00;;;;5034216;28;20236;-71
2022/01/02 03:29:22;;;;;;;7.57;3.87;;;;;11.60;101078.00;;;;5038178;28;20228;-67
2022/01/02 03:32:09;;;;;;;7.70;3.70;;;;;11.50;101082.00;;;;5033985;28;20230;-71
2022/01/02 03:34:55;;;;;;;10.90;3.97;;;;;11.50;101087.00;;;;5021394;28;20244;-70
2022/01/02 03:37:42;;;;;;;10.00;3.90;;;;;11.40;101066.00;;;;5017628;28;20242;-70
2022/01/02 03:40:29;;;;;;;7.50;3.90;;;;;11.40;101074.00;;;;5011207;28;20248;-70
2022/01/02 03:43:16;;;;;;;9.17;4.10;;;;;11.40;101071.00;;;;5022495;28;20233;-71
2022/01/02 03:46:04;;;;;;;7.27;4.13;;;;;11.40;101069.00;;;;5021291;28;20245;-70
2022/01/02 03:48:50;;;;;;;8.70;4.40;;;;;11.40;101059.00;;;;5028350;28;20233;-69
2022/01/02 03:51:36;;;;;;;9.47;4.77;;;;;11.40;101058.00;;;;5045676;28;20236;-71
2022/01/02 03:54:22;;;;;;;10.90;4.90;;;;;11.50;101063.00;;;;5042858;28;20298;-71
2022/01/02 03:57:10;;;;;;;11.20;5.30;;;;;11.70;101057.00;;;;5046278;28;20319;-69
2022/01/02 03:59:56;;;;;;;13.87;4.50;;;;;11.50;101040.00;;;;5040600;28;20229;-70
2022/01/02 04:02:44;;;;;;;9.57;4.57;;;;;11.60;101053.00;;;;5047404;28;20290;-71
2022/01/02 04:05:30;;;;;;;10.03;4.87;;;;;11.50;101043.00;;;;5046387;28;20233;-71
2022/01/02 04:08:17;;;;;;;10.10;4.87;;;;;11.60;101040.00;;;;5043646;28;20232;-71
2022/01/02 04:11:03;;;;;;;9.73;4.47;;;;;11.60;101048.00;;;;5038617;28;20233;-72
2022/01/02 04:13:49;;;;;;;10.40;4.70;;;;;11.60;101043.00;;;;5040391;28;20318;-70
2022/01/02 04:16:36;;;;;;;10.97;4.80;;;;;11.50;101039.00;;;;5045668;28;20322;-69
2022/01/02 04:19:23;;;;;;;10.30;4.47;;;;;11.50;101027.00;;;;5028953;28;20240;-71
2022/01/02 04:22:10;;;;;;;9.93;4.40;;;;;11.60;101018.00;;;;5028146;28;20296;-70
2022/01/02 04:24:57;;;;;;;12.37;4.43;;;;;11.50;101020.00;;;;5007643;28;20369;-68
2022/01/02 04:27:43;;;;;;;10.07;4.40;;;;;11.40;101006.00;;;;5016619;28;20229;-70
2022/01/02 04:30:29;;;;;;;12.13;4.87;;;;;11.40;101003.00;;;;5027563;28;20236;-70
2022/01/02 04:33:16;;;;;;;13.20;5.03;;;;;11.40;100996.00;;;;5028146;28;20229;-71
2022/01/02 04:36:04;;;;;;;13.13;4.93;;;;;11.40;100991.00;;;;5027991;28;20655;-71
2022/01/02 04:38:50;;;;;;;11.70;5.00;;;;;11.50;100993.00;;;;5027842;28;20268;-71
2022/01/02 04:41:36;;;;;;;9.33;4.60;;;;;11.50;101002.00;;;;5027285;28;20645;-71
2022/01/02 04:44:22;;;;;;;11.87;4.60;;;;;11.50;100985.00;;;;5026654;28;20311;-68
2022/01/02 04:47:09;;;;;;;8.93;4.77;;;;;11.60;100995.00;;;;5025549;28;20712;-70
2022/01/02 04:49:55;;;;;;;11.47;4.53;;;;;11.70;100967.00;;;;5016255;28;20730;-70
2022/01/02 04:52:43;;;;;;;8.07;4.57;;;;;11.60;100982.00;;;;5024566;28;20233;-71
2022/01/02 04:55:29;;;;;;;11.07;4.50;;;;;11.60;100985.00;;;;5026435;28;20237;-72
2022/01/02 04:58:16;;;;;;;11.47;4.60;;;;;11.50;100986.00;;;;5023870;28;20612;-69
2022/01/02 05:01:02;;;;;;;11.00;4.80;;;;;11.50;100980.00;;;;5021220;28;20232;-71
2022/01/02 05:03:48;;;;;;;12.67;4.70;;;;;11.80;100971.00;;;;5020572;28;20234;-72
2022/01/02 05:06:35;;;;;;;9.33;4.60;;;;;11.80;100973.00;;;;5027069;28;20312;-73
2022/01/02 05:09:22;;;;;;;12.10;4.70;;;;;11.80;100971.00;;;;5015954;28;20234;-71
2022/01/02 05:12:09;;;;;;;8.23;4.43;;;;;11.70;100951.00;;;;5024065;28;20241;-71
2022/01/02 05:14:57;;;;;;;10.93;3.93;;;;;11.60;100967.00;;;;5021889;28;20237;-71
2022/01/02 05:17:44;;;;;;;10.17;4.27;;;;;11.60;100977.00;;;;5021164;28;20280;-71
2022/01/02 05:20:30;;;;;;;9.07;4.27;;;;;11.60;100970.00;;;;5026711;28;20260;-71
2022/01/02 05:23:18;;;;;;;9.63;4.20;;;;;11.80;100965.00;;;;5023118;28;20245;-71
2022/01/02 05:26:06;;;;;;;13.67;4.40;;;;;11.70;100960.00;;;;5021411;28;20242;-72
2022/01/02 05:28:53;;;;;;;13.13;4.30;;;;;11.60;100969.00;;;;5019033;28;20273;-70
2022/01/02 05:31:39;;;;;;;11.97;4.57;;;;;11.80;100959.00;;;;5036419;28;20449;-71
2022/01/02 05:34:25;;;;;;;10.27;4.03;;;;;11.80;100956.00;;;;5027083;28;20285;-70
2022/01/02 05:37:12;;;;;;;12.43;4.33;;;;;11.80;100956.00;;;;5026486;28;20730;-71
2022/01/02 05:39:58;;;;;;;13.50;4.63;;;;;11.60;100963.00;;;;5018417;28;20721;-71
2022/01/02 05:42:46;;;;;;;7.97;3.97;;;;;11.70;100963.00;;;;5018136;28;20241;-71
2022/01/02 05:45:33;;;;;;;10.87;4.27;;;;;11.60;100949.00;;;;5025699;28;20739;-72
2022/01/02 05:48:20;;;;;;;10.50;4.20;;;;;11.70;100962.00;;;;5023930;28;20267;-72
2022/01/02 05:51:06;;;;;;;10.50;4.20;;;;;11.70;100952.00;;;;5021414;28;20235;-72
2022/01/02 05:53:52;;;;;;;11.90;4.27;;;;;11.90;100929.00;;;;5020462;28;20285;-71
2022/01/02 05:56:39;;;;;;;10.27;4.07;;;;;11.80;100920.00;;;;5026227;28;20229;-73
2022/01/02 05:59:26;;;;;;;9.87;4.30;;;;;11.80;100915.00;;;;5023356;28;20224;-72
2022/01/02 06:02:13;;;;;;;8.27;4.33;;;;;12.00;100914.00;;;;5025990;28;20291;-71
2022/01/02 06:05:00;;;;;;;11.20;4.07;;;;;12.10;100930.00;;;;5019950;28;20230;-70
2022/01/02 06:07:46;;;;;;;9.20;4.23;;;;;12.00;100926.00;;;;5025047;28;20736;-72
2022/01/02 06:10:32;;;;;;;8.13;4.03;;;;;11.90;100914.00;;;;5017535;28;20241;-71
2022/01/02 06:13:19;;;;;;;11.73;4.17;;;;;11.90;100904.00;;;;5025643;28;20228;-71
2022/01/02 06:16:07;;;;;;;9.63;4.20;;;;;11.90;100899.00;;;;5023564;28;20719;-72
2022/01/02 06:18:53;;;;;;;11.07;4.20;;;;;11.90;100894.00;;;;5024271;28;20232;-70
2022/01/02 06:21:40;;;;;;;13.20;4.10;;;;;11.90;100887.00;;;;5025153;28;20365;-72
2022/01/02 06:24:25;;;;;;;7.77;4.10;;;;;12.00;100886.00;;;;5024783;28;20736;-71
2022/01/02 06:27:12;;;;;;;10.50;4.07;;;;;11.90;100870.00;;;;5021880;28;20821;-71
2022/01/02 06:29:58;;;;;;;36.33;19.07;;;;;11.90;100872.00;;;;5016627;28;20230;-70
2022/01/02 06:32:46;;;;;;;19.67;9.50;;;;;11.80;100865.00;;;;5017345;28;20872;-67
2022/01/02 06:35:34;;;;;;;8.77;3.70;;;;;11.80;100857.00;;;;5024076;28;20245;-70
2022/01/02 06:38:21;;;;;;;7.37;3.97;;;;;11.90;100865.00;;;;5019131;28;20721;-68
2022/01/02 06:41:08;;;;;;;9.30;4.37;;;;;12.00;100846.00;;;;5022155;28;20237;-69
2022/01/02 06:43:54;;;;;;;9.60;4.00;;;;;12.00;100836.00;;;;5018622;28;20257;-69
2022/01/02 06:46:42;;;;;;;10.90;4.70;;;;;11.90;100831.00;;;;5023512;28;20244;-71
2022/01/02 06:49:29;;;;;;;11.57;5.17;;;;;12.00;100831.00;;;;5015320;28;20256;-70
2022/01/02 06:52:16;;;;;;;7.13;4.17;;;;;11.90;100819.00;;;;5025612;28;20225;-68
2022/01/02 06:55:02;;;;;;;6.67;4.00;;;;;11.90;100808.00;;;;5020051;28;20237;-69
2022/01/02 06:57:48;;;;;;;12.33;5.17;;;;;11.90;100806.00;;;;5018098;28;20253;-70
2022/01/02 07:00:35;;;;;;;7.93;4.27;;;;;11.90;100807.00;;;;5025617;28;20225;-69
2022/01/02 07:03:22;;;;;;;30.33;15.03;;;;;11.90;100801.00;;;;5014294;28;20750;-72
2022/01/02 07:06:09;;;;;;;19.20;9.93;;;;;11.80;100801.00;;;;5020437;28;20243;-68
2022/01/02 07:08:55;;;;;;;10.70;5.70;;;;;11.70;100798.00;;;;5021168;28;20234;-72
2022/01/02 07:11:41;;;;;;;9.00;4.80;;;;;11.70;100788.00;;;;5020870;28;20250;-72
2022/01/02 07:14:28;;;;;;;11.07;4.67;;;;;11.90;100769.00;;;;5028750;28;20360;-72
2022/01/02 07:17:14;;;;;;;12.40;4.50;;;;;12.00;100718.00;;;;5027924;28;20735;-72
2022/01/02 07:20:00;;;;;;;13.37;5.00;;;;;12.00;100716.00;;;;5028382;28;20225;-73
2022/01/02 07:22:48;;;;;;;10.40;4.47;;;;;11.90;100710.00;;;;5020026;28;20252;-72
2022/01/02 07:25:34;;;;;;;11.10;5.10;;;;;11.80;100716.00;;;;5023224;28;20643;-72
2022/01/02 07:28:21;;;;;;;7.33;4.50;;;;;11.70;100727.00;;;;5034161;28;20224;-71
2022/01/02 07:31:07;;;;;;;9.10;4.50;;;;;11.60;100734.00;;;;5021752;28;20662;-71
2022/01/02 07:33:53;;;;;;;10.13;4.10;;;;;11.60;100745.00;;;;5014300;28;20229;-69
2022/01/02 07:36:44;;;;;;;9.67;4.97;;;;;11.60;100724.00;;;;5033920;28;20232;-70
2022/01/02 07:39:32;;;;;;;10.40;4.67;;;;;11.70;100719.00;;;;5021619;28;20634;-69
2022/01/02 07:42:18;;;;;;;27.03;14.20;;;;;11.70;100704.00;;;;5018198;28;20229;-69
2022/01/02 07:45:06;;;;;;;8.17;4.43;;;;;11.90;100704.00;;;;5032805;28;20249;-71
2022/01/02 07:47:52;;;;;;;16.17;4.47;;;;;11.90;100701.00;;;;5021267;28;20712;-70
2022/01/02 07:50:39;;;;;;;11.93;4.30;;;;;11.80;100691.00;;;;5028125;28;20287;-70
2022/01/02 07:53:25;;;;;;;8.23;4.43;;;;;11.90;100679.00;;;;5028050;28;20229;-71
2022/01/02 07:56:12;;;;;;;11.23;4.17;;;;;11.90;100662.00;;;;5021448;28;20244;-71
2022/01/02 07:58:59;;;;;;;10.70;4.10;;;;;11.90;100666.00;;;;5037787;28;20224;-71
2022/01/02 08:01:46;;;;;;;11.47;3.97;;;;;12.10;100653.00;;;;5020067;28;20229;-71
2022/01/02 08:04:32;;;;;;;9.90;3.90;;;;;11.90;100633.00;;;;5027451;28;20280;-69
2022/01/02 08:07:18;;;;;;;12.20;4.17;;;;;11.90;100629.00;;;;5027983;28;20236;-71
2022/01/02 08:10:05;;;;;;;9.43;3.80;;;;;12.00;100617.00;;;;5022889;28;20236;-71
2022/01/02 08:12:53;;;;;;;13.50;3.87;;;;;12.00;100625.00;;;;5017216;28;20344;-72
2022/01/02 08:15:39;;;;;;;8.00;3.60;;;;;12.20;100589.00;;;;5021655;28;20283;-71
2022/01/02 08:18:25;;;;;;;6.97;3.30;;;;;12.30;100573.00;;;;5006686;28;20237;-71
2022/01/02 08:21:11;;;;;;;8.43;3.63;;;;;12.10;100573.00;;;;5018798;28;20356;-71
2022/01/02 08:23:58;;;;;;;8.93;3.37;;;;;12.10;100574.00;;;;5017280;28;20304;-72
2022/01/02 08:26:46;;;;;;;8.00;3.60;;;;;12.10;100575.00;;;;5014707;28;20698;-71
2022/01/02 08:29:33;;;;;;;9.97;3.43;;;;;12.20;100545.00;;;;5019823;28;20225;-72
2022/01/02 08:32:20;;;;;;;9.50;3.57;;;;;12.20;100545.00;;;;5015467;28;20757;-73
2022/01/02 08:35:11;;;;;;;6.83;3.40;;;;;12.40;100532.00;;;;5019447;28;20244;-73
2022/01/02 08:37:57;;;;;;;58.53;38.40;;;;;12.40;100502.00;;;;5017637;28;20229;-70
2022/01/02 08:40:49;;;;;;;10.07;4.10;;;;;12.40;100518.00;;;;5013208;28;20234;-72
2022/01/02 08:43:35;;;;;;;6.17;3.17;;;;;12.40;100523.00;;;;5028977;28;20748;-72
2022/01/02 08:46:23;;;;;;;7.80;3.17;;;;;12.30;100514.00;;;;5024333;28;20268;-73
2022/01/02 08:49:09;;;;;;;8.53;3.70;;;;;12.20;100516.00;;;;5018850;28;20245;-72
2022/01/02 08:51:55;;;;;;;7.67;3.43;;;;;12.30;100499.00;;;;5039266;28;20232;-71
2022/01/02 08:54:42;;;;;;;8.73;3.77;;;;;12.30;100507.00;;;;5027210;28;20245;-71
2022/01/02 08:57:28;;;;;;;7.57;3.07;;;;;12.30;100506.00;;;;5026857;28;20225;-72
2022/01/02 09:00:15;;;;;;;8.90;3.40;;;;;12.40;100517.00;;;;5003522;28;20746;-69
2022/01/02 09:03:03;;;;;;;6.93;3.20;;;;;12.30;100524.00;;;;5021324;28;20307;-73
2022/01/02 09:05:49;;;;;;;8.23;3.33;;;;;12.40;100538.00;;;;5018730;28;20242;-73
2022/01/02 09:08:36;;;;;;;7.17;3.17;;;;;12.30;100547.00;;;;5026005;28;20292;-72
2022/01/02 09:11:23;;;;;;;10.80;3.00;;;;;12.30;100545.00;;;;5023344;28;20444;-72
2022/01/02 09:14:09;;;;;;;6.80;3.30;;;;;12.20;100595.00;;;;5027123;28;20229;-72
2022/01/02 09:16:56;;;;;;;6.63;3.20;;;;;12.30;100575.00;;;;5020417;28;20241;-72
2022/01/02 09:19:43;;;;;;;8.23;3.17;;;;;12.40;100594.00;;;;5026626;28;20238;-73
2022/01/02 09:22:30;;;;;;;5.40;3.00;;;;;12.60;100595.00;;;;5026019;28;20237;-74
2022/01/02 09:25:16;;;;;;;6.33;3.10;;;;;12.50;100598.00;;;;5021825;28;20285;-72
2022/01/02 09:28:02;;;;;;;6.70;3.23;;;;;12.60;100598.00;;;;5022220;28;20303;-73
2022/01/02 09:30:48;;;;;;;6.70;3.00;;;;;12.60;100579.00;;;;5016392;28;20356;-73
2022/01/02 09:33:36;;;;;;;8.53;3.13;;;;;12.50;100576.00;;;;5026275;28;20292;-74
2022/01/02 09:36:23;;;;;;;8.57;3.00;;;;;12.60;100570.00;;;;5023115;28;20256;-73
2022/01/02 09:39:10;;;;;;;6.27;3.30;;;;;12.70;100555.00;;;;5020410;28;20304;-71
2022/01/02 09:41:56;;;;;;;6.80;3.23;;;;;12.70;100561.00;;;;5022738;28;20237;-75
2022/01/02 09:44:43;;;;;;;8.67;3.17;;;;;12.80;100551.00;;;;5015978;28;20246;-68
2022/01/02 09:47:32;;;;;;;6.83;2.77;;;;;12.80;100564.00;;;;5023963;28;20248;-72
2022/01/02 09:50:19;;;;;;;5.40;2.63;;;;;12.80;100553.00;;;;5026477;28;20281;-74
2022/01/02 09:53:07;;;;;;;100.90;45.70;;;;;12.90;100575.00;;;;5025905;28;20364;-72
2022/01/02 09:55:54;;;;;;;4.97;3.10;;;;;13.00;100536.00;;;;5025918;28;20237;-70
2022/01/02 09:58:43;;;;;;;4.90;3.00;;;;;13.10;100557.00;;;;5025717;28;20760;-72
2022/01/02 10:01:30;;;;;;;6.77;2.43;;;;;13.20;100560.00;;;;5026154;28;20233;-74
2022/01/02 10:04:32;;;;;;;4.40;2.77;;;;;13.00;100562.00;;;;5026051;28;20364;-73
2022/01/02 10:07:30;;;;;;;5.70;2.73;;;;;12.90;100554.00;;;;5016294;28;21166;-72
2022/01/02 10:10:18;;;;;;;4.97;2.73;;;;;13.20;100568.00;;;;5018550;28;20725;-72
2022/01/02 10:13:04;;;;;;;3.13;2.27;;;;;13.30;100556.00;;;;5003179;28;20334;-72
2022/01/02 10:15:50;;;;;;;5.00;2.70;;;;;13.20;100564.00;;;;5006742;28;20243;-73
2022/01/02 10:18:39;;;;;;;4.53;2.60;;;;;13.20;100556.00;;;;5000139;28;20606;-74
2022/01/02 10:21:30;;;;;;;3.27;2.30;;;;;13.30;100554.00;;;;5012842;28;20229;-72
2022/01/02 10:24:21;;;;;;;5.97;3.90;;;;;13.20;100558.00;;;;4986294;28;20238;-72
2022/01/02 10:27:15;;;;;;;3.90;2.93;;;;;13.20;100554.00;;;;5017829;28;20238;-73
2022/01/02 10:30:01;;;;;;;4.93;2.93;;;;;13.00;100551.00;;;;5015500;28;20660;-72
2022/01/02 10:32:47;;;;;;;10.33;2.70;;;;;13.10;100544.00;;;;5009429;28;20240;-73
2022/01/02 10:35:37;;;;;;;3.37;2.60;;;;;13.30;100544.00;;;;5019231;28;20763;-72
2022/01/02 10:38:24;;;;;;;7.53;3.03;;;;;13.30;100539.00;;;;5015023;28;20249;-70
2022/01/02 10:41:10;;;;;;;5.23;3.00;;;;;13.40;100535.00;;;;5027698;28;20228;-72
2022/01/02 10:44:17;;;;;;;5.27;3.17;;;;;13.30;100540.00;;;;5018686;28;20756;-73
2022/01/02 10:47:13;;;;;;;5.47;2.93;;;;;13.30;100538.00;;;;5022649;28;20248;-72
2022/01/02 10:50:03;;;;;;;25.53;12.53;;;;;13.50;100540.00;;;;5017582;28;20291;-70
2022/01/02 10:52:50;;;;;;;7.83;3.30;;;;;13.60;100539.00;;;;5013641;28;20237;-71
2022/01/02 10:55:37;;;;;;;6.60;3.13;;;;;13.80;100525.00;;;;5027923;28;20360;-71
2022/01/02 10:58:25;;;;;;;6.23;3.33;;;;;14.00;100538.00;;;;5016662;28;20241;-72
2022/01/02 11:01:13;;;;;;;6.20;3.20;;;;;14.20;100551.00;;;;5014738;28;20234;-71
2022/01/02 11:04:01;;;;;;;6.47;3.00;;;;;14.30;100554.00;;;;5012596;28;20777;-70
2022/01/02 11:06:48;;;;;;;5.80;3.20;;;;;14.30;100543.00;;;;5012351;28;20376;-72
2022/01/02 11:09:35;;;;;;;6.27;3.37;;;;;14.10;100542.00;;;;5016200;28;20226;-73
2022/01/02 11:12:21;;;;;;;9.17;3.63;;;;;14.10;100569.00;;;;5012069;28;20301;-71
2022/01/02 11:15:10;;;;;;;5.87;3.50;;;;;14.10;100559.00;;;;5013262;28;20329;-70
2022/01/02 11:17:58;;;;;;;8.30;3.37;;;;;14.10;100577.00;;;;5006660;28;20351;-74
2022/01/02 11:20:45;;;;;;;6.80;3.50;;;;;14.10;100563.00;;;;5006653;28;20239;-74
2022/01/02 11:23:37;;;;;;;7.90;3.90;;;;;14.20;100560.00;;;;4999459;28;20234;-71
2022/01/02 11:26:31;;;;;;;5.30;3.47;;;;;14.20;100549.00;;;;4994482;28;20712;-72
2022/01/02 11:29:33;;;;;;;5.03;3.07;;;;;14.20;100576.00;;;;5002009;28;20226;-72
2022/01/02 11:32:25;;;;;;;7.03;3.53;;;;;14.40;100561.00;;;;5000539;28;20232;-73
2022/01/02 11:35:27;;;;;;;6.20;3.73;;;;;14.60;100575.00;;;;5001994;28;20231;-71
2022/01/02 11:38:16;;;;;;;7.33;3.80;;;;;14.60;100562.00;;;;5004255;28;20740;-74
2022/01/02 11:41:02;;;;;;;44.23;26.23;;;;;14.50;100551.00;;;;5003111;28;20241;-73
2022/01/02 11:43:55;;;;;;;12.97;6.87;;;;;14.60;100551.00;;;;5001184;28;20234;-71
2022/01/02 11:46:47;;;;;;;5.50;3.60;;;;;14.60;100557.00;;;;5015874;28;20254;-72
2022/01/02 11:49:43;;;;;;;7.63;3.53;;;;;14.40;100550.00;;;;5003943;28;20232;-71
2022/01/02 11:52:32;;;;;;;6.90;3.87;;;;;14.40;100538.00;;;;5004785;28;20230;-70
2022/01/02 11:55:19;;;;;;;5.23;3.60;;;;;14.30;100546.00;;;;5003609;28;20231;-72
2022/01/02 11:58:05;;;;;;;7.83;3.60;;;;;14.20;100548.00;;;;5009936;28;20253;-72
2022/01/02 12:00:51;;;;;;;5.63;4.00;;;;;14.20;100550.00;;;;5015542;28;20233;-72
2022/01/02 12:03:53;;;;;;;8.63;3.77;;;;;14.10;100540.00;;;;4998310;28;20886;-70
2022/01/02 12:06:42;;;;;;;5.80;3.30;;;;;14.00;100542.00;;;;5020810;28;20240;-72
2022/01/02 12:09:38;;;;;;;6.43;3.63;;;;;14.00;100538.00;;;;5005524;28;20245;-72
2022/01/02 12:12:24;;;;;;;8.23;3.97;;;;;14.00;100537.00;;;;5003875;28;20247;-74
2022/01/02 12:15:11;;;;;;;5.40;3.90;;;;;13.90;100554.00;;;;5000138;28;20403;-74
2022/01/02 12:18:08;;;;;;;8.23;3.60;;;;;13.90;100544.00;;;;5004815;28;20265;-74
2022/01/02 12:21:09;;;;;;;5.33;3.60;;;;;13.90;100554.00;;;;5008836;28;20367;-72
2022/01/02 12:23:56;;;;;;;6.53;3.30;;;;;13.80;100546.00;;;;5000761;28;20748;-73
2022/01/02 12:26:46;;;;;;;6.07;3.83;;;;;13.80;100540.00;;;;5028206;28;20261;-72
2022/01/02 12:29:32;;;;;;;7.40;3.50;;;;;13.70;100531.00;;;;5007078;28;20372;-73
2022/01/02 12:32:22;;;;;;;5.13;3.40;;;;;13.70;100541.00;;;;5014723;28;20391;-74
2022/01/02 12:35:09;;;;;;;6.13;3.17;;;;;13.60;100526.00;;;;5013015;28;20230;-71
2022/01/02 12:38:03;;;;;;;7.27;3.20;;;;;13.70;100532.00;;;;5007753;28;20237;-71
2022/01/02 12:40:53;;;;;;;17.93;9.60;;;;;13.70;100543.00;;;;5008756;28;20233;-71
2022/01/02 12:43:41;;;;;;;8.70;3.83;;;;;13.70;100530.00;;;;5008677;28;20303;-70
2022/01/02 12:46:33;;;;;;;5.90;3.40;;;;;13.80;100520.00;;;;5026726;28;20245;-70
2022/01/02 12:49:21;;;;;;;5.00;3.30;;;;;13.70;100527.00;;;;5024962;28;20229;-71
2022/01/02 12:52:12;;;;;;;8.03;3.60;;;;;13.60;100523.00;;;;5028247;28;20233;-71
2022/01/02 12:54:59;;;;;;;6.57;3.13;;;;;13.60;100522.00;;;;5020496;28;20229;-68
2022/01/02 12:57:45;;;;;;;6.20;3.00;;;;;13.60;100520.00;;;;5023727;28;20238;-68
2022/01/02 13:00:33;;;;;;;4.90;3.37;;;;;13.60;100521.00;;;;5029072;28;20237;-69
2022/01/02 13:03:19;;;;;;;6.53;3.37;;;;;13.60;100524.00;;;;5004533;28;20280;-68
2022/01/02 13:06:05;;;;;;;7.23;3.23;;;;;13.60;100534.00;;;;5026282;28;20241;-70
2022/01/02 13:08:57;;;;;;;8.07;3.20;;;;;13.70;100547.00;;;;5022944;28;20240;-70
2022/01/02 13:11:43;;;;;;;7.37;3.30;;;;;13.60;100547.00;;;;5016821;28;20300;-70
2022/01/02 13:14:34;;;;;;;6.20;3.47;;;;;13.50;100558.00;;;;5025534;28;20285;-70
2022/01/02 13:17:26;;;;;;;5.87;2.97;;;;;13.50;100540.00;;;;5024876;28;20679;-69
2022/01/02 13:20:16;;;;;;;4.50;3.03;;;;;13.40;100565.00;;;;5021781;28;20280;-71
2022/01/02 13:23:03;;;;;;;8.30;3.30;;;;;13.50;100547.00;;;;5022994;28;20974;-68
2022/01/02 13:25:50;;;;;;;6.53;3.17;;;;;13.50;100549.00;;;;5023541;28;20602;-71
2022/01/02 13:28:36;;;;;;;6.00;3.20;;;;;13.60;100522.00;;;;5014289;28;20221;-70
2022/01/02 13:31:26;;;;;;;8.50;3.00;;;;;13.50;100537.00;;;;5032848;28;20287;-70
2022/01/02 13:34:26;;;;;;;7.93;3.30;;;;;13.50;100545.00;;;;5028401;28;20221;-71
2022/01/02 13:37:13;;;;;;;4.37;3.10;;;;;13.50;100540.00;;;;5021909;28;20316;-68
2022/01/02 13:39:59;;;;;;;42.37;21.50;;;;;13.50;100542.00;;;;5017889;28;20282;-70
2022/01/02 13:42:47;;;;;;;8.70;3.60;;;;;13.60;100543.00;;;;5026505;28;20232;-71
2022/01/02 13:45:34;;;;;;;5.17;3.37;;;;;13.60;100544.00;;;;5021469;28;20308;-72
2022/01/02 13:48:23;;;;;;;7.93;3.40;;;;;13.60;100526.00;;;;5023576;28;20245;-70
2022/01/02 13:51:15;;;;;;;4.20;3.20;;;;;13.60;100531.00;;;;5012704;28;20276;-69